Time;durP1;ratioP1;P1;durP2;ratioP2;P2;SDS_P1;SDS_P2;PMS_P1;PMS_P2;Temp;Humidity;BMP_temperature;BMP_pressure;BME280_temperature;BME280_humidity;BME280_pressure;Samples;Min_cycle;Max_cycle;Signal;HPM_P1;HPM_P2
2022/07/16 00:03:39;;;;;;;;;;;;;;;29.29;31.15;94589.34;4959945;28;7332;-61
2022/07/16 00:06:14;;;;;;;;;;;;;;;29.28;30.86;94579.53;4909818;29;7261;-61
2022/07/16 00:08:57;;;;;;;;;;;;;;;29.29;31.10;94588.59;4909230;29;7844;-61
2022/07/16 00:11:23;;;;;;;;;;;;;;;29.27;31.09;94575.28;4889805;29;9090;-61
2022/07/16 00:13:51;;;;;;;;;;;;;;;29.27;31.51;94580.81;4895966;29;7004;-61
2022/07/16 00:16:25;;;;;;;;;;;;;;;29.26;31.15;94581.34;4895866;29;7254;-61
2022/07/16 00:21:35;;;;;;;;;;;;;;;29.29;31.21;94578.25;4912978;29;7884;-61
2022/07/16 00:24:14;;;;;;;;;;;;;;;29.30;31.02;94579.00;4912772;29;7340;-61
2022/07/16 00:26:56;;;;;;;;;;;;;;;29.32;31.41;94582.00;4916831;28;7884;-61
2022/07/16 00:29:24;;;;;;;;;;;;;;;29.31;31.63;94580.50;4908124;28;7268;-61
2022/07/16 00:31:59;;;;;;;;;;;;;;;29.32;31.41;94584.78;4927373;28;7411;-61
2022/07/16 00:34:25;;;;;;;;;;;;;;;29.31;31.42;94578.47;4913914;29;6998;-61
2022/07/16 00:36:54;;;;;;;;;;;;;;;29.31;31.53;94580.50;4934826;28;8792;-61
2022/07/16 00:39:20;;;;;;;;;;;;;;;29.29;31.18;94577.50;4921289;29;9436;-61
2022/07/16 00:41:48;;;;;;;;;;;;;;;29.29;31.58;94578.25;4949464;28;8804;-61
2022/07/16 00:44:21;;;;;;;;;;;;;;;29.29;31.27;94586.56;4988417;28;7136;-61
2022/07/16 00:46:48;;;;;;;;;;;;;;;29.27;31.17;94574.53;4992109;28;9417;-61
2022/07/16 00:49:15;;;;;;;;;;;;;;;29.27;31.55;94583.59;5005280;28;9064;-61
2022/07/16 00:51:52;;;;;;;;;;;;;;;29.25;31.02;94577.84;4992489;28;7029;-61
2022/07/16 00:54:19;;;;;;;;;;;;;;;29.24;31.33;94575.56;4977617;28;6985;-61
2022/07/16 00:56:48;;;;;;;;;;;;;;;29.23;30.90;94580.38;5007023;28;9041;-61
2022/07/16 00:59:15;;;;;;;;;;;;;;;29.22;31.42;94580.91;5007657;28;7298;-61
2022/07/16 01:01:44;;;;;;;;;;;;;;;29.21;31.20;94582.91;5018104;28;7162;-61
2022/07/16 01:04:20;;;;;;;;;;;;;;;29.20;30.87;94577.91;5002552;28;7070;-61
2022/07/16 01:06:50;;;;;;;;;;;;;;;29.20;31.04;94575.91;4994426;28;8863;-61
2022/07/16 01:09:20;;;;;;;;;;;;;;;29.20;30.79;94581.44;5003756;28;9118;-61
2022/07/16 01:11:47;;;;;;;;;;;;;;;29.21;30.78;94582.19;4991540;28;7929;-61
2022/07/16 01:14:15;;;;;;;;;;;;;;;29.20;30.90;94575.16;4998209;28;7177;-61
2022/07/16 01:16:41;;;;;;;;;;;;;;;29.18;31.01;94572.16;4990212;28;6984;-61
2022/07/16 01:19:10;;;;;;;;;;;;;;;29.16;31.11;94569.94;4980843;28;7264;-61
2022/07/16 01:21:37;;;;;;;;;;;;;;;29.16;31.18;94574.69;4973129;28;7069;-61
2022/07/16 01:24:04;;;;;;;;;;;;;;;29.15;31.33;94573.19;4968437;28;7254;-61
2022/07/16 01:26:32;;;;;;;;;;;;;;;29.13;30.67;94564.66;5005009;28;7000;-61
2022/07/16 01:28:58;;;;;;;;;;;;;;;29.11;30.92;94573.50;4980066;28;9012;-61
2022/07/16 01:31:34;;;;;;;;;;;;;;;29.11;31.32;94567.97;4991827;28;7102;-61
2022/07/16 01:36:56;;;;;;;;;;;;;;;29.07;30.56;94573.84;5011009;28;7946;-61
2022/07/16 01:39:23;;;;;;;;;;;;;;;29.09;30.81;94576.81;4987656;28;7224;-61
2022/07/16 01:41:57;;;;;;;;;;;;;;;29.08;30.44;94569.03;4990454;28;7522;-61
2022/07/16 01:44:34;;;;;;;;;;;;;;;29.06;30.85;94569.56;5004661;28;8582;-61
2022/07/16 01:47:03;;;;;;;;;;;;;;;29.05;30.99;94570.09;5010646;28;7061;-61
2022/07/16 01:49:32;;;;;;;;;;;;;;;29.02;31.01;94566.34;5025988;28;7270;-61
2022/07/16 01:52:17;;;;;;;;;;;;;;;29.03;30.97;94564.34;5012456;28;8454;-61
2022/07/16 01:54:46;;;;;;;;;;;;;;;29.01;30.78;94564.13;4998168;28;7273;-61
2022/07/16 01:57:13;;;;;;;;;;;;;;;29.00;30.64;94571.69;5002539;28;7238;-61
2022/07/16 01:59:41;;;;;;;;;;;;;;;28.99;31.09;94566.69;5015054;28;9562;-61
2022/07/16 02:02:07;;;;;;;;;;;;;;;28.99;30.41;94566.69;4986035;28;6975;-61
2022/07/16 02:04:33;;;;;;;;;;;;;;;28.99;30.21;94572.22;4986558;28;9059;-61
2022/07/16 02:07:00;;;;;;;;;;;;;;;28.96;30.71;94562.19;5005203;28;7214;-61
2022/07/16 02:09:28;;;;;;;;;;;;;;;28.95;30.31;94569.75;5007811;28;7210;-61
2022/07/16 02:12:01;;;;;;;;;;;;;;;28.94;30.50;94573.06;5007997;28;7780;-61
2022/07/16 02:14:31;;;;;;;;;;;;;;;28.93;30.04;94568.78;4995487;28;7404;-61
2022/07/16 02:17:26;;;;;;;;;;;;;;;28.89;30.18;94566.31;5004574;28;8021;-61
2022/07/16 02:19:57;;;;;;;;;;;;;;;28.85;30.17;94574.19;4959106;28;7434;-61
2022/07/16 02:22:24;;;;;;;;;;;;;;;28.82;30.56;94580.78;4953031;28;7132;-61
2022/07/16 02:24:49;;;;;;;;;;;;;;;28.79;30.64;94570.78;4945791;28;7170;-61
2022/07/16 02:27:15;;;;;;;;;;;;;;;28.77;30.28;94575.34;4933662;28;9476;-61
2022/07/16 02:29:42;;;;;;;;;;;;;;;28.75;30.90;94575.13;4954313;28;7275;-61
2022/07/16 02:32:07;;;;;;;;;;;;;;;28.73;30.52;94578.41;4917764;28;9409;-61
2022/07/16 02:34:34;;;;;;;;;;;;;;;28.70;30.34;94573.94;4928443;28;9119;-60
2022/07/16 02:37:02;;;;;;;;;;;;;;;28.68;30.92;94570.94;4916818;28;7275;-61
2022/07/16 02:39:31;;;;;;;;;;;;;;;28.67;30.27;94574.97;4922587;28;9093;-61
2022/07/16 02:41:57;;;;;;;;;;;;;;;28.67;30.54;94579.75;4931954;28;8453;-61
2022/07/16 02:44:23;;;;;;;;;;;;;;;28.65;30.39;94582.31;4963077;28;9155;-61
2022/07/16 02:46:49;;;;;;;;;;;;;;;28.65;30.33;94582.31;4944331;28;9269;-61
2022/07/16 02:49:15;;;;;;;;;;;;;;;28.62;30.74;94581.38;4956278;28;6999;-61
2022/07/16 02:51:41;;;;;;;;;;;;;;;28.61;30.71;94577.09;4947478;28;7213;-61
2022/07/16 02:54:07;;;;;;;;;;;;;;;28.61;30.74;94576.34;4950277;28;7266;-61
2022/07/16 02:56:35;;;;;;;;;;;;;;;28.59;30.65;94573.34;4962166;28;9087;-61
2022/07/16 02:59:01;;;;;;;;;;;;;;;28.58;30.53;94572.59;5008168;28;7252;-61
2022/07/16 03:01:27;;;;;;;;;;;;;;;28.56;30.63;94572.34;4990605;28;9026;-61
2022/07/16 03:03:56;;;;;;;;;;;;;;;28.56;30.75;94563.31;5008696;28;9062;-61
2022/07/16 03:06:26;;;;;;;;;;;;;;;28.54;30.71;94571.38;5017406;28;7609;-61
2022/07/16 03:08:52;;;;;;;;;;;;;;;28.54;30.79;94568.63;4999532;28;7460;-61
2022/07/16 03:11:18;;;;;;;;;;;;;;;28.52;30.74;94571.91;4989922;28;7081;-61
2022/07/16 03:13:46;;;;;;;;;;;;;;;28.50;30.88;94570.94;4988880;28;7114;-61
2022/07/16 03:16:14;;;;;;;;;;;;;;;28.50;30.83;94580.00;4992499;28;7028;-61
2022/07/16 03:18:40;;;;;;;;;;;;;;;28.49;30.85;94578.53;5012471;28;7236;-61
2022/07/16 03:21:06;;;;;;;;;;;;;;;28.48;30.82;94577.00;4992795;28;8211;-62
2022/07/16 03:23:32;;;;;;;;;;;;;;;28.47;31.19;94578.28;5010270;28;7243;-61
2022/07/16 03:25:59;;;;;;;;;;;;;;;28.45;31.40;94569.03;5018018;28;7552;-61
2022/07/16 03:28:28;;;;;;;;;;;;;;;28.45;30.79;94577.31;4990004;28;7232;-61
2022/07/16 03:30:54;;;;;;;;;;;;;;;28.42;30.79;94570.06;4993179;28;6864;-61
2022/07/16 03:33:36;;;;;;;;;;;;;;;28.41;31.10;94568.56;4997684;28;7614;-61
2022/07/16 03:36:05;;;;;;;;;;;;;;;28.39;31.15;94571.84;5016614;28;7280;-61
2022/07/16 03:41:15;;;;;;;;;;;;;;;28.38;31.33;94580.69;5014402;28;7227;-61
2022/07/16 03:43:48;;;;;;;;;;;;;;;28.36;31.37;94572.94;5007583;28;7335;-61
2022/07/16 03:46:14;;;;;;;;;;;;;;;28.36;30.87;94573.66;5012980;28;6965;-61
2022/07/16 03:48:43;;;;;;;;;;;;;;;28.35;30.82;94576.94;4991492;28;7466;-61
2022/07/16 03:51:22;;;;;;;;;;;;;;;28.34;30.90;94580.97;5016500;28;7227;-61
2022/07/16 03:54:06;;;;;;;;;;;;;;;28.32;30.87;94575.97;5008774;28;7291;-61
2022/07/16 03:56:32;;;;;;;;;;;;;;;28.33;31.01;94582.25;5001500;28;9232;-61
2022/07/16 03:59:33;;;;;;;;;;;;;;;28.31;31.08;94584.81;5001740;28;7239;-61
2022/07/16 04:02:13;;;;;;;;;;;;;;;28.26;31.58;94580.84;4912615;29;7003;-61
2022/07/16 04:04:40;;;;;;;;;;;;;;;28.24;31.72;94582.63;4896272;29;9267;-61
2022/07/16 04:07:36;;;;;;;;;;;;;;;28.26;31.24;94596.69;4905916;29;9438;-61
2022/07/16 04:10:20;;;;;;;;;;;;;;;28.27;30.97;94592.66;4861089;29;7232;-61
2022/07/16 04:12:59;;;;;;;;;;;;;;;28.27;31.28;94590.63;4849760;29;9566;-61
2022/07/16 04:15:36;;;;;;;;;;;;;;;28.27;30.91;94592.66;4840504;29;8145;-61
2022/07/16 04:18:36;;;;;;;;;;;;;;;28.26;31.34;94597.44;4840857;29;7286;-61
2022/07/16 04:21:11;;;;;;;;;;;;;;;28.24;30.95;94593.69;4819762;29;7235;-61
2022/07/16 04:23:50;;;;;;;;;;;;;;;28.23;31.44;94594.97;4804076;29;9322;-61
2022/07/16 04:26:33;;;;;;;;;;;;;;;28.19;31.18;94591.75;4811425;29;9184;-61
2022/07/16 04:29:01;;;;;;;;;;;;;;;28.21;31.74;94594.72;4814840;29;6864;-61
2022/07/16 04:31:36;;;;;;;;;;;;;;;28.21;31.28;94595.50;4813518;29;7247;-61
2022/07/16 04:34:11;;;;;;;;;;;;;;;28.21;31.75;94589.19;4819501;29;9149;-61
2022/07/16 04:36:37;;;;;;;;;;;;;;;28.23;31.35;94597.75;4825237;29;8817;-61
2022/07/16 04:39:03;;;;;;;;;;;;;;;28.23;31.07;94600.53;4892854;29;10335;-61
2022/07/16 04:41:30;;;;;;;;;;;;;;;28.24;31.32;94611.06;4877330;29;7124;-61
2022/07/16 04:43:56;;;;;;;;;;;;;;;28.24;31.40;94608.28;4893727;29;9160;-61
2022/07/16 04:46:25;;;;;;;;;;;;;;;28.22;30.98;94604.53;4911418;29;8727;-61
2022/07/16 04:48:51;;;;;;;;;;;;;;;28.21;30.99;94611.34;4923984;28;9090;-61
2022/07/16 04:51:38;;;;;;;;;;;;;;;28.21;31.42;94605.81;4933925;28;7223;-61
2022/07/16 04:54:28;;;;;;;;;;;;;;;28.20;31.25;94605.06;4939962;28;7200;-61
2022/07/16 04:56:56;;;;;;;;;;;;;;;28.16;31.47;94610.16;4952503;28;9378;-61
2022/07/16 05:00:07;;;;;;;;;;;;;;;28.18;31.43;94609.63;4993576;28;7387;-61
2022/07/16 05:05:59;;;;;;;;;;;;;;;28.13;31.37;94610.44;4957562;28;9081;-61
2022/07/16 05:08:26;;;;;;;;;;;;;;;28.13;31.34;94613.97;4930370;29;9436;-61
2022/07/16 05:11:02;;;;;;;;;;;;;;;28.11;31.48;94612.97;4940503;28;7321;-61
2022/07/16 05:13:30;;;;;;;;;;;;;;;28.08;31.38;94603.72;4952081;28;9777;-61
2022/07/16 05:15:58;;;;;;;;;;;;;;;28.09;31.29;94605.22;4944931;29;7184;-61
2022/07/16 05:18:33;;;;;;;;;;;;;;;28.09;31.77;94607.97;4942192;28;7407;-61
2022/07/16 05:21:07;;;;;;;;;;;;;;;28.08;31.96;94616.78;4936594;29;9187;-61
2022/07/16 05:23:44;;;;;;;;;;;;;;;28.08;31.90;94616.78;4945620;28;7389;-61
2022/07/16 05:26:12;;;;;;;;;;;;;;;28.07;32.13;94618.06;4933596;29;7193;-61
2022/07/16 05:29:09;;;;;;;;;;;;;;;28.08;32.18;94619.53;4940505;29;7159;-61
2022/07/16 05:31:47;;;;;;;;;;;;;;;28.05;32.05;94615.06;4889982;29;9107;-61
2022/07/16 05:34:22;;;;;;;;;;;;;;;28.06;32.33;94627.63;4875774;29;7161;-61
2022/07/16 05:36:48;;;;;;;;;;;;;;;28.06;32.01;94616.56;4887365;29;7212;-61
2022/07/16 05:39:17;;;;;;;;;;;;;;;28.01;31.99;94617.38;4882780;29;7218;-61
2022/07/16 05:41:44;;;;;;;;;;;;;;;28.02;32.51;94618.88;4869932;29;8452;-61
2022/07/16 05:44:13;;;;;;;;;;;;;;;28.03;32.30;94623.16;4888217;29;7415;-60
2022/07/16 05:46:41;;;;;;;;;;;;;;;28.05;31.67;94621.34;4913340;29;7163;-60
2022/07/16 05:49:10;;;;;;;;;;;;;;;28.07;31.97;94624.34;4892795;29;7233;-61
2022/07/16 05:52:03;;;;;;;;;;;;;;;28.07;31.78;94623.59;4909625;29;9486;-60
2022/07/16 05:54:38;;;;;;;;;;;;;;;28.06;32.06;94624.84;4910237;29;7213;-60
2022/07/16 05:57:04;;;;;;;;;;;;;;;28.06;32.05;94633.16;4892162;29;9650;-60
2022/07/16 05:59:32;;;;;;;;;;;;;;;28.05;31.95;94631.66;4898673;29;9547;-60
2022/07/16 06:01:58;;;;;;;;;;;;;;;28.04;32.19;94630.16;4913714;29;7194;-60
2022/07/16 06:04:24;;;;;;;;;;;;;;;28.02;31.66;94632.69;4908946;29;6999;-62
2022/07/16 06:07:01;;;;;;;;;;;;;;;28.01;31.73;94631.97;4896458;29;7298;-61
2022/07/16 06:09:27;;;;;;;;;;;;;;;27.99;31.69;94633.75;5003681;28;7249;-61
2022/07/16 06:11:54;;;;;;;;;;;;;;;27.99;31.80;94639.28;4989385;28;9103;-61
2022/07/16 06:14:20;;;;;;;;;;;;;;;28.01;32.81;94633.97;5007005;28;9267;-61
2022/07/16 06:16:46;;;;;;;;;;;;;;;28.02;32.04;94635.47;5002681;28;7550;-61
2022/07/16 06:19:12;;;;;;;;;;;;;;;28.01;32.26;94634.72;5010002;28;9076;-61
2022/07/16 06:21:38;;;;;;;;;;;;;;;28.00;32.24;94635.25;4988881;28;7048;-61
2022/07/16 06:24:04;;;;;;;;;;;;;;;28.02;32.15;94635.47;4987876;28;7293;-61
2022/07/16 06:26:30;;;;;;;;;;;;;;;28.03;32.20;94637.72;4985901;28;7090;-61
2022/07/16 06:28:57;;;;;;;;;;;;;;;28.04;32.15;94641.22;4984783;28;7079;-61
2022/07/16 06:31:25;;;;;;;;;;;;;;;28.06;32.18;94638.69;4986344;28;7173;-61
2022/07/16 06:33:51;;;;;;;;;;;;;;;28.07;32.27;94646.47;5001817;28;7327;-61
2022/07/16 06:36:17;;;;;;;;;;;;;;;28.04;31.69;94641.97;4975523;28;9359;-62
2022/07/16 06:38:43;;;;;;;;;;;;;;;28.05;31.61;94640.72;4985693;28;7109;-62
2022/07/16 06:41:11;;;;;;;;;;;;;;;28.04;32.02;94641.22;5002152;28;9635;-61
2022/07/16 06:43:37;;;;;;;;;;;;;;;28.01;32.07;94639.50;4989848;28;7050;-61
2022/07/16 06:46:03;;;;;;;;;;;;;;;28.02;32.27;94643.75;4989776;28;7328;-62
2022/07/16 06:48:33;;;;;;;;;;;;;;;28.03;32.31;94642.50;4979999;28;7230;-61
2022/07/16 06:51:00;;;;;;;;;;;;;;;27.99;31.98;94645.53;4983006;28;9019;-61
2022/07/16 06:53:29;;;;;;;;;;;;;;;27.99;32.19;94653.84;4981220;28;8770;-62
2022/07/16 06:55:56;;;;;;;;;;;;;;;27.98;32.17;94655.13;5004408;28;7178;-62
2022/07/16 06:58:22;;;;;;;;;;;;;;;27.98;32.05;94655.13;4983889;28;7601;-62
2022/07/16 07:00:48;;;;;;;;;;;;;;;27.99;31.84;94653.13;4984742;28;7202;-61
2022/07/16 07:03:14;;;;;;;;;;;;;;;27.96;31.86;94651.34;4994099;28;7220;-61
2022/07/16 07:05:45;;;;;;;;;;;;;;;27.98;31.93;94666.19;4992493;28;7246;-61
2022/07/16 07:08:17;;;;;;;;;;;;;;;27.97;31.68;94652.84;5003278;28;7169;-62
2022/07/16 07:10:44;;;;;;;;;;;;;;;27.97;32.23;94658.38;5008060;28;9006;-61
2022/07/16 07:13:13;;;;;;;;;;;;;;;27.95;31.74;94661.66;4996952;28;9068;-61
2022/07/16 07:15:38;;;;;;;;;;;;;;;27.96;32.78;94656.88;4995627;28;9101;-62
2022/07/16 07:18:05;;;;;;;;;;;;;;;27.95;31.95;94664.41;4992441;28;7261;-61
2022/07/16 07:20:31;;;;;;;;;;;;;;;27.95;32.16;94666.44;4988056;28;7962;-61
2022/07/16 07:22:57;;;;;;;;;;;;;;;27.94;32.27;94660.16;4983981;28;7179;-61
2022/07/16 07:25:27;;;;;;;;;;;;;;;27.95;32.16;94660.94;5005739;28;7017;-62
2022/07/16 07:27:53;;;;;;;;;;;;;;;27.95;32.09;94658.88;4991648;28;7400;-61
2022/07/16 07:30:19;;;;;;;;;;;;;;;27.97;32.16;94658.38;5004790;28;8987;-62
2022/07/16 07:32:52;;;;;;;;;;;;;;;27.97;32.38;94663.91;5000176;28;9336;-62
2022/07/16 07:35:22;;;;;;;;;;;;;;;28.00;32.81;94662.88;4997554;28;8799;-62
2022/07/16 07:37:50;;;;;;;;;;;;;;;28.01;32.75;94664.41;4990727;28;9196;-61
2022/07/16 07:40:16;;;;;;;;;;;;;;;28.02;32.43;94671.41;5006086;28;7682;-62
2022/07/16 07:42:41;;;;;;;;;;;;;;;27.99;32.90;94662.13;4988451;28;7875;-62
2022/07/16 07:45:11;;;;;;;;;;;;;;;27.99;32.62;94658.63;4991493;28;9089;-62
2022/07/16 07:47:44;;;;;;;;;;;;;;;28.00;32.51;94666.41;5005105;28;9125;-61
2022/07/16 07:50:16;;;;;;;;;;;;;;;28.00;32.31;94654.59;4992449;28;7246;-61
2022/07/16 07:52:44;;;;;;;;;;;;;;;28.03;32.21;94656.31;4987764;28;9027;-61
2022/07/16 07:55:20;;;;;;;;;;;;;;;28.03;32.15;94661.84;4990298;28;9483;-61
2022/07/16 07:57:52;;;;;;;;;;;;;;;28.02;32.21;94652.81;5004806;28;7232;-62
2022/07/16 08:00:23;;;;;;;;;;;;;;;28.04;32.79;94658.56;4991912;28;7159;-61
2022/07/16 08:02:57;;;;;;;;;;;;;;;28.07;32.43;94665.06;5003897;28;8696;-61
2022/07/16 08:05:33;;;;;;;;;;;;;;;28.06;32.19;94655.28;5005569;28;7147;-62
2022/07/16 08:08:01;;;;;;;;;;;;;;;28.06;32.70;94656.03;5009573;28;7070;-62
2022/07/16 08:10:40;;;;;;;;;;;;;;;28.05;32.86;94654.53;4990990;28;6991;-62
2022/07/16 08:13:11;;;;;;;;;;;;;;;28.06;32.40;94660.81;5003418;28;8923;-62
2022/07/16 08:15:40;;;;;;;;;;;;;;;28.05;32.96;94670.38;5006891;28;9435;-62
2022/07/16 08:18:12;;;;;;;;;;;;;;;28.05;32.92;94657.31;4988376;28;7546;-62
2022/07/16 08:20:40;;;;;;;;;;;;;;;28.05;32.67;94662.09;4993001;28;7591;-61
2022/07/16 08:23:07;;;;;;;;;;;;;;;28.04;33.05;94660.56;4986511;28;6976;-62
2022/07/16 08:25:46;;;;;;;;;;;;;;;28.03;33.57;94657.09;4999900;28;7075;-61
2022/07/16 08:28:16;;;;;;;;;;;;;;;28.05;33.16;94659.31;4992381;28;7082;-61
2022/07/16 08:30:43;;;;;;;;;;;;;;;28.08;33.21;94663.78;4991454;28;7368;-61
2022/07/16 08:33:14;;;;;;;;;;;;;;;28.09;33.75;94654.25;4992352;28;7009;-62
2022/07/16 08:35:40;;;;;;;;;;;;;;;28.12;33.43;94653.22;5008343;28;6997;-61
2022/07/16 08:38:06;;;;;;;;;;;;;;;28.12;33.57;94662.22;4992022;28;9013;-61
2022/07/16 08:40:32;;;;;;;;;;;;;;;28.13;33.68;94662.97;5002464;28;7299;-61
2022/07/16 08:43:04;;;;;;;;;;;;;;;28.10;33.43;94662.00;4992532;28;7434;-62
2022/07/16 08:45:38;;;;;;;;;;;;;;;28.13;33.47;94662.97;4985424;28;8498;-61
2022/07/16 08:48:06;;;;;;;;;;;;;;;28.15;33.22;94668.75;4985657;28;8794;-62
2022/07/16 08:50:34;;;;;;;;;;;;;;;28.15;33.43;94660.44;4983637;28;9099;-61
2022/07/16 08:53:03;;;;;;;;;;;;;;;28.19;32.99;94666.44;5004927;28;8810;-61
2022/07/16 08:55:29;;;;;;;;;;;;;;;28.19;33.57;94663.66;4987897;28;7071;-62
2022/07/16 08:57:57;;;;;;;;;;;;;;;28.18;33.93;94667.72;4985607;28;7322;-62
2022/07/16 09:00:23;;;;;;;;;;;;;;;28.19;33.80;94666.44;4999300;28;9174;-62
2022/07/16 09:02:49;;;;;;;;;;;;;;;28.21;34.24;94667.41;4980372;28;7270;-62
2022/07/16 09:05:16;;;;;;;;;;;;;;;28.22;34.02;94668.91;4983687;28;7158;-62
2022/07/16 09:07:42;;;;;;;;;;;;;;;28.21;34.21;94667.41;4999735;28;9096;-62
2022/07/16 09:10:10;;;;;;;;;;;;;;;28.22;34.00;94674.44;5001731;28;8975;-62
2022/07/16 09:12:39;;;;;;;;;;;;;;;28.23;34.28;94670.41;4985040;28;7262;-62
2022/07/16 09:15:26;;;;;;;;;;;;;;;28.23;34.54;94681.47;5002999;28;9701;-61
2022/07/16 09:18:14;;;;;;;;;;;;;;;28.24;34.44;94665.63;4989782;28;7123;-62
2022/07/16 09:20:45;;;;;;;;;;;;;;;28.24;34.26;94673.91;5010929;28;7222;-62
2022/07/16 09:23:30;;;;;;;;;;;;;;;28.26;34.31;94674.91;4992840;28;8998;-62
2022/07/16 09:25:57;;;;;;;;;;;;;;;28.26;34.41;94680.44;5008773;28;7013;-62
2022/07/16 09:28:49;;;;;;;;;;;;;;;28.27;34.46;94678.41;4992491;28;7049;-62
2022/07/16 09:32:07;;;;;;;;;;;;;;;28.26;34.44;94676.91;4989799;28;7414;-62
2022/07/16 09:34:45;;;;;;;;;;;;;;;28.27;34.58;94676.38;4918572;29;7059;-62
2022/07/16 09:37:11;;;;;;;;;;;;;;;28.29;34.52;94684.16;4937544;28;7009;-62
2022/07/16 09:39:47;;;;;;;;;;;;;;;28.28;34.21;94677.88;4932115;28;9454;-62
2022/07/16 09:42:38;;;;;;;;;;;;;;;28.29;34.66;94678.63;4920569;29;9059;-62
2022/07/16 09:45:27;;;;;;;;;;;;;;;28.29;34.28;94682.16;4931161;29;7226;-62
2022/07/16 09:48:20;;;;;;;;;;;;;;;28.29;34.50;94678.63;4944887;29;9473;-62
2022/07/16 09:50:53;;;;;;;;;;;;;;;28.31;34.34;94681.63;4937167;28;7283;-62
2022/07/16 09:53:22;;;;;;;;;;;;;;;28.32;34.32;94677.56;4930195;29;9075;-62
2022/07/16 09:56:12;;;;;;;;;;;;;;;28.33;34.46;94671.53;4949325;29;7137;-62
2022/07/16 09:58:38;;;;;;;;;;;;;;;28.33;34.43;94673.56;4930441;29;7533;-62
2022/07/16 10:01:07;;;;;;;;;;;;;;;28.32;34.20;94675.56;4947779;29;9156;-62
2022/07/16 10:03:43;;;;;;;;;;;;;;;28.32;34.40;94672.78;4909746;29;7720;-62
2022/07/16 10:06:10;;;;;;;;;;;;;;;28.34;34.07;94675.78;4924462;29;9152;-62
2022/07/16 10:08:43;;;;;;;;;;;;;;;28.33;34.02;94670.78;4913792;29;8915;-62
2022/07/16 10:11:10;;;;;;;;;;;;;;;28.35;34.33;94674.53;4972824;28;7231;-62
2022/07/16 10:13:42;;;;;;;;;;;;;;;28.37;34.33;94671.22;5002529;28;6974;-61
2022/07/16 10:16:35;;;;;;;;;;;;;;;28.36;34.08;94664.94;4985282;28;7219;-61
2022/07/16 10:19:01;;;;;;;;;;;;;;;28.36;34.15;94664.22;5003155;28;7188;-62
2022/07/16 10:21:29;;;;;;;;;;;;;;;28.38;34.08;94675.50;4983682;28;7231;-62
2022/07/16 10:24:11;;;;;;;;;;;;;;;28.36;38.59;94676.00;4976653;28;7052;-62
2022/07/16 10:26:40;;;;;;;;;;;;;;;28.38;34.88;94669.97;4971509;28;8851;-61
2022/07/16 10:29:06;;;;;;;;;;;;;;;28.38;34.89;94670.69;4992481;28;9112;-62
2022/07/16 10:34:33;;;;;;;;;;;;;;;28.41;37.89;94668.91;5001076;28;9320;-63
2022/07/16 10:37:00;;;;;;;;;;;;;;;28.43;38.15;94660.84;4987089;28;8252;-62
2022/07/16 10:39:30;;;;;;;;;;;;;;;28.45;38.02;94672.13;5003027;28;7554;-62
2022/07/16 10:42:03;;;;;;;;;;;;;;;28.45;36.48;94669.34;4985814;28;7213;-62
2022/07/16 10:45:15;;;;;;;;;;;;;;;28.48;36.78;94665.56;4988226;28;7066;-63
2022/07/16 10:47:49;;;;;;;;;;;;;;;28.47;36.15;94666.81;4960924;28;7533;-62
2022/07/16 10:50:21;;;;;;;;;;;;;;;28.48;36.31;94667.56;4952651;28;7059;-62
2022/07/16 10:52:51;;;;;;;;;;;;;;;28.48;35.88;94678.63;4947085;28;8815;-62
2022/07/16 10:55:40;;;;;;;;;;;;;;;28.49;36.54;94666.31;4964872;28;7888;-62
2022/07/16 10:58:06;;;;;;;;;;;;;;;28.51;36.03;94667.28;4952945;28;7221;-62
2022/07/16 11:00:32;;;;;;;;;;;;;;;28.51;36.05;94670.06;4966051;28;7002;-62
2022/07/16 11:03:02;;;;;;;;;;;;;;;28.50;36.25;94671.31;4966412;28;7335;-62
2022/07/16 11:05:56;;;;;;;;;;;;;;;28.53;36.14;94675.81;4950108;28;7006;-62
2022/07/16 11:08:55;;;;;;;;;;;;;;;28.56;35.90;94674.75;4946090;28;7186;-62
2022/07/16 11:11:41;;;;;;;;;;;;;;;28.58;36.04;94677.03;4923027;29;9198;-62
2022/07/16 11:14:14;;;;;;;;;;;;;;;28.58;36.05;94679.81;4911998;29;7222;-63
2022/07/16 11:17:29;;;;;;;;;;;;;;;28.57;35.98;94676.28;4916712;29;7010;-62
2022/07/16 11:20:00;;;;;;;;;;;;;;;28.58;35.97;94677.03;4854061;29;8200;-62
2022/07/16 11:22:29;;;;;;;;;;;;;;;28.54;35.64;94671.75;4856754;29;6922;-62
2022/07/16 11:25:18;;;;;;;;;;;;;;;28.56;35.78;94671.25;4853058;29;7532;-62
2022/07/16 11:27:49;;;;;;;;;;;;;;;28.56;35.78;94668.50;4855126;29;7439;-63
2022/07/16 11:30:25;;;;;;;;;;;;;;;28.55;35.87;94676.03;4855372;29;7153;-62
2022/07/16 11:33:06;;;;;;;;;;;;;;;28.58;35.47;94675.00;4861748;29;8790;-62
2022/07/16 11:35:42;;;;;;;;;;;;;;;28.59;36.00;94679.28;4839676;29;9392;-63
2022/07/16 11:38:08;;;;;;;;;;;;;;;28.60;36.41;94674.50;4838434;29;7142;-62
2022/07/16 11:40:41;;;;;;;;;;;;;;;28.59;35.64;94670.97;4835809;29;9179;-62
2022/07/16 11:43:08;;;;;;;;;;;;;;;28.62;37.24;94671.94;4846184;29;9167;-62
2022/07/16 11:45:45;;;;;;;;;;;;;;;28.62;36.18;94678.25;4852000;29;7148;-62
2022/07/16 11:48:13;;;;;;;;;;;;;;;28.61;36.17;94676.72;4876347;29;9190;-62
2022/07/16 11:50:40;;;;;;;;;;;;;;;28.62;37.01;94671.94;4899247;29;7386;-62
2022/07/16 11:53:08;;;;;;;;;;;;;;;28.64;36.80;94675.69;4905801;29;9485;-62
2022/07/16 11:55:43;;;;;;;;;;;;;;;28.66;36.53;94667.59;4922903;28;9357;-63
2022/07/16 11:58:15;;;;;;;;;;;;;;;28.69;40.57;94665.78;4994260;28;8796;-63
2022/07/16 12:00:46;;;;;;;;;;;;;;;28.68;40.24;94661.53;4984909;28;9312;-62
2022/07/16 12:03:16;;;;;;;;;;;;;;;28.68;40.01;94665.06;4989526;28;9881;-62
2022/07/16 12:05:43;;;;;;;;;;;;;;;28.68;39.84;94659.53;4993061;28;7126;-63
2022/07/16 12:08:18;;;;;;;;;;;;;;;28.68;41.19;94661.53;5003265;28;7246;-63
2022/07/16 12:10:59;;;;;;;;;;;;;;;28.71;41.28;94658.47;5018415;28;7643;-63
2022/07/16 12:13:56;;;;;;;;;;;;;;;28.73;40.94;94655.91;4992331;28;7491;-62
2022/07/16 12:16:33;;;;;;;;;;;;;;;28.72;40.97;94664.75;5007557;28;7283;-63
2022/07/16 12:19:12;;;;;;;;;;;;;;;28.70;40.14;94651.44;5007087;28;7250;-63
2022/07/16 12:21:41;;;;;;;;;;;;;;;28.71;40.35;94652.94;4985168;28;6948;-62
2022/07/16 12:24:09;;;;;;;;;;;;;;;28.70;40.24;94650.69;4990372;28;7225;-63
2022/07/16 12:26:43;;;;;;;;;;;;;;;28.71;39.58;94641.84;5004446;28;8759;-63
2022/07/16 12:29:14;;;;;;;;;;;;;;;28.71;39.60;94647.38;5004663;28;7233;-62
2022/07/16 12:32:03;;;;;;;;;;;;;;;28.71;39.23;94650.16;5008823;28;7293;-62
2022/07/16 12:34:48;;;;;;;;;;;;;;;28.72;39.22;94640.59;5013005;28;7220;-62
2022/07/16 12:37:15;;;;;;;;;;;;;;;28.73;37.53;94650.38;4991522;28;8394;-63
2022/07/16 12:39:41;;;;;;;;;;;;;;;28.71;35.95;94647.38;4988821;28;7196;-62
2022/07/16 12:42:16;;;;;;;;;;;;;;;28.70;36.32;94645.91;4982008;28;7423;-62
2022/07/16 12:44:44;;;;;;;;;;;;;;;28.73;36.50;94657.97;5005358;28;6996;-62
2022/07/16 12:47:13;;;;;;;;;;;;;;;28.74;36.14;94648.38;4988108;28;9484;-63
2022/07/16 12:49:46;;;;;;;;;;;;;;;28.74;35.86;94653.91;4974889;28;7312;-63
2022/07/16 12:52:18;;;;;;;;;;;;;;;28.74;36.16;94643.59;4991220;28;8068;-63
2022/07/16 13:00:47;;;;;;;;;;;;;;;28.85;35.75;94657.25;5006928;28;7141;-63
2022/07/16 13:03:21;;;;;;;;;;;;;;;28.88;35.57;94649.94;4990635;28;7192;-63
2022/07/16 13:05:47;;;;;;;;;;;;;;;28.89;35.43;94649.38;4985071;28;8247;-63
2022/07/16 13:08:15;;;;;;;;;;;;;;;28.89;35.18;94657.69;4985823;28;7270;-62
2022/07/16 13:10:41;;;;;;;;;;;;;;;28.90;34.89;94659.22;4989744;28;9099;-62
2022/07/16 13:13:09;;;;;;;;;;;;;;;28.91;34.81;94655.16;4987307;28;6950;-63
2022/07/16 13:15:35;;;;;;;;;;;;;;;28.90;34.57;94656.44;4985472;28;9132;-63
2022/07/16 13:18:07;;;;;;;;;;;;;;;28.91;34.94;94660.69;4992242;28;7226;-63
2022/07/16 13:20:35;;;;;;;;;;;;;;;28.94;35.24;94656.88;4978572;28;7330;-62
2022/07/16 13:23:03;;;;;;;;;;;;;;;28.96;34.82;94657.09;5001727;28;9519;-63
2022/07/16 13:25:29;;;;;;;;;;;;;;;28.97;34.88;94658.56;4985050;28;8213;-62
2022/07/16 13:27:55;;;;;;;;;;;;;;;28.99;34.93;94658.06;4987582;28;7129;-63
2022/07/16 13:30:21;;;;;;;;;;;;;;;28.98;34.32;94662.84;5006038;28;7365;-63
2022/07/16 13:32:47;;;;;;;;;;;;;;;28.97;34.46;94655.81;4983570;28;8899;-63
2022/07/16 13:35:13;;;;;;;;;;;;;;;29.01;34.27;94653.47;5003577;28;9498;-63
2022/07/16 13:37:40;;;;;;;;;;;;;;;29.00;34.09;94657.53;4994811;28;9097;-63
2022/07/16 13:40:07;;;;;;;;;;;;;;;28.99;33.78;94658.78;4987718;28;7230;-62
2022/07/16 13:42:33;;;;;;;;;;;;;;;29.02;33.60;94657.00;5004168;28;8177;-62
2022/07/16 13:45:01;;;;;;;;;;;;;;;29.02;34.02;94657.75;4998622;28;8140;-62